Time;durP1;ratioP1;P1;durP2;ratioP2;P2;SDS_P1;SDS_P2;PMS_P1;PMS_P2;Temp;Humidity;BMP_temperature;BMP_pressure;BME280_temperature;BME280_humidity;BME280_pressure;Samples;Min_cycle;Max_cycle;Signal;HPM_P1;HPM_P2
2022/07/07 00:00:07;;;;;;;;;;;;;;;;;;4980626;28;136169;-64
2022/07/07 00:02:33;;;;;;;;;;;;;;;;;;4984039;28;106322;-64
2022/07/07 00:05:00;;;;;;;;;;;;;;;;;;4985768;28;118472;-63
2022/07/07 00:07:26;;;;;;;;;;;;;;;;;;4980192;28;113163;-63
2022/07/07 00:09:52;;;;;;;;;;;;;;;;;;4981941;28;107213;-64
2022/07/07 00:12:19;;;;;;;;;;;;;;;;;;4983642;28;123030;-66
2022/07/07 00:14:45;;;;;;;;;;;;;;;;;;4978707;28;107822;-65
2022/07/07 00:17:12;;;;;;;;;;;;;;;;;;4986341;28;106457;-63
2022/07/07 00:19:38;;;;;;;;;;;;;;;;;;4983737;28;120881;-64
2022/07/07 00:22:05;;;;;;;;;;;;;;;;;;4983480;28;106589;-63
2022/07/07 00:24:32;;;;;;;;;;;;;;;;;;4985193;28;136205;-63
2022/07/07 00:26:58;;;;;;;;;;;;;;;;;;4974187;28;122739;-64
2022/07/07 00:29:24;;;;;;;;;;;;;;;;;;4984138;28;106374;-64
2022/07/07 00:31:50;;;;;;;;;;;;;;;;;;4995404;28;137396;-63
2022/07/07 00:34:17;;;;;;;;;;;;;;;;;;4986594;28;137197;-63
2022/07/07 00:36:43;;;;;;;;;;;;;;;;;;4984366;28;136639;-63
2022/07/07 00:39:09;;;;;;;;;;;;;;;;;;4981667;28;119658;-63
2022/07/07 00:41:36;;;;;;;;;;;;;;;;;;4984927;28;126587;-63
2022/07/07 00:44:03;;;;;;;;;;;;;;;;;;4979947;28;137516;-63
2022/07/07 00:46:29;;;;;;;;;;;;;;;;;;4972297;28;134852;-64
2022/07/07 00:48:55;;;;;;;;;;;;;;;;;;4982770;28;128760;-64
2022/07/07 00:51:21;;;;;;;;;;;;;;;;;;4984420;28;137152;-64
2022/07/07 00:53:48;;;;;;;;;;;;;;;;;;4981960;28;138162;-63
2022/07/07 00:56:14;;;;;;;;;;;;;;;;;;4986988;28;106913;-63
2022/07/07 00:58:40;;;;;;;;;;;;;;;;;;4977737;28;137231;-64
2022/07/07 01:01:06;;;;;;;;;;;;;;;;;;4987291;28;128722;-64
2022/07/07 01:03:33;;;;;;;;;;;;;;;;;;4980997;28;136788;-63
2022/07/07 01:05:59;;;;;;;;;;;;;;;;;;4967432;22;137291;-63
2022/07/07 01:08:25;;;;;;;;;;;;;;;;;;4951539;28;128645;-64
2022/07/07 01:10:52;;;;;;;;;;;;;;;;;;4958357;28;135477;-64
2022/07/07 01:13:18;;;;;;;;;;;;;;;;;;4944231;28;137162;-63
2022/07/07 01:15:44;;;;;;;;;;;;;;;;;;4944549;28;129323;-63
2022/07/07 01:18:12;;;;;;;;;;;;;;;;;;4951264;28;127297;-64
2022/07/07 01:20:39;;;;;;;;;;;;;;;;;;4955253;28;128300;-63
2022/07/07 01:23:05;;;;;;;;;;;;;;;;;;4949068;28;130108;-64
2022/07/07 01:25:32;;;;;;;;;;;;;;;;;;4947722;28;137514;-63
2022/07/07 01:27:58;;;;;;;;;;;;;;;;;;4946791;28;128946;-63
2022/07/07 01:30:24;;;;;;;;;;;;;;;;;;4955309;28;137858;-64
2022/07/07 01:32:50;;;;;;;;;;;;;;;;;;4942414;28;135707;-64
2022/07/07 01:35:17;;;;;;;;;;;;;;;;;;4947941;28;129873;-63
2022/07/07 01:37:43;;;;;;;;;;;;;;;;;;4950364;28;137555;-64
2022/07/07 01:40:09;;;;;;;;;;;;;;;;;;4950569;28;127903;-63
2022/07/07 01:42:36;;;;;;;;;;;;;;;;;;4962213;28;125453;-64
2022/07/07 01:45:02;;;;;;;;;;;;;;;;;;4944779;28;136160;-63
2022/07/07 01:47:28;;;;;;;;;;;;;;;;;;4944895;28;128610;-64
2022/07/07 01:49:55;;;;;;;;;;;;;;;;;;4949164;28;137011;-64
2022/07/07 01:52:21;;;;;;;;;;;;;;;;;;4946554;28;128675;-66
2022/07/07 01:54:47;;;;;;;;;;;;;;;;;;4947597;28;120145;-63
2022/07/07 01:57:13;;;;;;;;;;;;;;;;;;4952661;28;137118;-63
2022/07/07 01:59:40;;;;;;;;;;;;;;;;;;4950490;28;133238;-63
2022/07/07 02:02:06;;;;;;;;;;;;;;;;;;4948094;28;136584;-65
2022/07/07 02:04:32;;;;;;;;;;;;;;;;;;4947107;28;137901;-63
2022/07/07 02:06:59;;;;;;;;;;;;;;;;;;4950826;28;129362;-64
2022/07/07 02:09:25;;;;;;;;;;;;;;;;;;4948114;28;137369;-64
2022/07/07 02:11:51;;;;;;;;;;;;;;;;;;4947195;28;137862;-64
2022/07/07 02:14:18;;;;;;;;;;;;;;;;;;4947315;28;127997;-64
2022/07/07 02:16:44;;;;;;;;;;;;;;;;;;4948398;28;107428;-64
2022/07/07 02:19:10;;;;;;;;;;;;;;;;;;4947413;28;112896;-64
2022/07/07 02:21:36;;;;;;;;;;;;;;;;;;4948294;28;128970;-63
2022/07/07 02:24:03;;;;;;;;;;;;;;;;;;4947497;28;137253;-64
2022/07/07 02:26:31;;;;;;;;;;;;;;;;;;4946141;28;129448;-63
2022/07/07 02:28:57;;;;;;;;;;;;;;;;;;4947790;28;135340;-64
2022/07/07 02:31:23;;;;;;;;;;;;;;;;;;4946210;28;136584;-64
2022/07/07 02:33:50;;;;;;;;;;;;;;;;;;4945262;28;129029;-64
2022/07/07 02:36:16;;;;;;;;;;;;;;;;;;4949330;28;106881;-64
2022/07/07 02:38:42;;;;;;;;;;;;;;;;;;4947542;28;137095;-63
2022/07/07 02:41:09;;;;;;;;;;;;;;;;;;4945040;28;119149;-64
2022/07/07 02:43:35;;;;;;;;;;;;;;;;;;4950180;28;137421;-64
2022/07/07 02:46:03;;;;;;;;;;;;;;;;;;4946560;28;130255;-64
2022/07/07 02:48:30;;;;;;;;;;;;;;;;;;4947004;28;131621;-63
2022/07/07 02:50:56;;;;;;;;;;;;;;;;;;4956583;28;138048;-64
2022/07/07 02:53:22;;;;;;;;;;;;;;;;;;4947699;28;107046;-63
2022/07/07 02:55:49;;;;;;;;;;;;;;;;;;4945914;28;134314;-65
2022/07/07 02:58:19;;;;;;;;;;;;;;;;;;4945604;28;137207;-63
2022/07/07 03:00:45;;;;;;;;;;;;;;;;;;4945855;28;127863;-63
2022/07/07 03:03:12;;;;;;;;;;;;;;;;;;4948149;28;135896;-63
2022/07/07 03:05:38;;;;;;;;;;;;;;;;;;4941652;28;136982;-63
2022/07/07 03:08:04;;;;;;;;;;;;;;;;;;4947368;28;136941;-63
2022/07/07 03:10:30;;;;;;;;;;;;;;;;;;4951976;28;137756;-63
2022/07/07 03:12:57;;;;;;;;;;;;;;;;;;4944208;28;121558;-63
2022/07/07 03:15:23;;;;;;;;;;;;;;;;;;4948918;28;136182;-63
2022/07/07 03:17:51;;;;;;;;;;;;;;;;;;4947334;28;137334;-63
2022/07/07 03:20:18;;;;;;;;;;;;;;;;;;4947956;28;113698;-63
2022/07/07 03:22:44;;;;;;;;;;;;;;;;;;4946875;28;136483;-63
2022/07/07 03:25:11;;;;;;;;;;;;;;;;;;4951376;28;113672;-63
2022/07/07 03:27:37;;;;;;;;;;;;;;;;;;4945867;28;137233;-63
2022/07/07 03:30:03;;;;;;;;;;;;;;;;;;4937511;28;136345;-63
2022/07/07 03:32:30;;;;;;;;;;;;;;;;;;4947461;28;115455;-63
2022/07/07 03:34:56;;;;;;;;;;;;;;;;;;4946886;28;136508;-63
2022/07/07 03:37:22;;;;;;;;;;;;;;;;;;4945886;28;135706;-63
2022/07/07 03:39:49;;;;;;;;;;;;;;;;;;4946920;28;129299;-63
2022/07/07 03:42:15;;;;;;;;;;;;;;;;;;4943320;28;135670;-63
2022/07/07 03:44:41;;;;;;;;;;;;;;;;;;4945717;28;116116;-63
2022/07/07 03:47:08;;;;;;;;;;;;;;;;;;4950363;28;116428;-63
2022/07/07 03:49:34;;;;;;;;;;;;;;;;;;4946681;28;133195;-63
2022/07/07 03:52:00;;;;;;;;;;;;;;;;;;4946753;28;128559;-62
2022/07/07 03:54:27;;;;;;;;;;;;;;;;;;4945374;28;135092;-63
2022/07/07 03:56:53;;;;;;;;;;;;;;;;;;4945855;28;135670;-63
2022/07/07 03:59:19;;;;;;;;;;;;;;;;;;4944703;28;126402;-63
2022/07/07 04:01:46;;;;;;;;;;;;;;;;;;4947352;28;112833;-63
2022/07/07 04:04:12;;;;;;;;;;;;;;;;;;4952049;28;135358;-63
2022/07/07 04:06:39;;;;;;;;;;;;;;;;;;4944291;28;128809;-63
2022/07/07 04:09:05;;;;;;;;;;;;;;;;;;4949313;28;137444;-62
2022/07/07 04:11:31;;;;;;;;;;;;;;;;;;4936972;28;127967;-63
2022/07/07 04:13:58;;;;;;;;;;;;;;;;;;4944782;28;117277;-63
2022/07/07 04:16:24;;;;;;;;;;;;;;;;;;4945371;28;135219;-62
2022/07/07 04:18:50;;;;;;;;;;;;;;;;;;4947008;28;129075;-64
2022/07/07 04:21:17;;;;;;;;;;;;;;;;;;4946813;28;135278;-63
2022/07/07 04:23:43;;;;;;;;;;;;;;;;;;4951731;28;137456;-63
2022/07/07 04:26:10;;;;;;;;;;;;;;;;;;4942557;28;109144;-62
2022/07/07 04:28:36;;;;;;;;;;;;;;;;;;4945974;28;136407;-62
2022/07/07 04:31:02;;;;;;;;;;;;;;;;;;4953827;28;136961;-63
2022/07/07 04:33:29;;;;;;;;;;;;;;;;;;4951836;28;136493;-63
2022/07/07 04:35:55;;;;;;;;;;;;;;;;;;4952921;28;137166;-63
2022/07/07 04:38:22;;;;;;;;;;;;;;;;;;4947420;28;128651;-63
2022/07/07 04:40:48;;;;;;;;;;;;;;;;;;4955853;28;126303;-62
2022/07/07 04:43:14;;;;;;;;;;;;;;;;;;4951435;28;135889;-62
2022/07/07 04:45:41;;;;;;;;;;;;;;;;;;4951184;28;115961;-63
2022/07/07 04:48:07;;;;;;;;;;;;;;;;;;4947527;28;136110;-63
2022/07/07 04:50:33;;;;;;;;;;;;;;;;;;4954497;28;136854;-62
2022/07/07 04:53:00;;;;;;;;;;;;;;;;;;4954864;28;127909;-63
2022/07/07 04:55:26;;;;;;;;;;;;;;;;;;4951948;28;134283;-63
2022/07/07 04:57:53;;;;;;;;;;;;;;;;;;4952800;28;126787;-63
2022/07/07 05:00:19;;;;;;;;;;;;;;;;;;4950104;28;135837;-63
2022/07/07 05:02:45;;;;;;;;;;;;;;;;;;4950788;28;135678;-62
2022/07/07 05:05:11;;;;;;;;;;;;;;;;;;4949040;28;128392;-63
2022/07/07 05:07:38;;;;;;;;;;;;;;;;;;4953000;28;136369;-63
2022/07/07 05:10:04;;;;;;;;;;;;;;;;;;4953331;28;138064;-63
2022/07/07 05:12:30;;;;;;;;;;;;;;;;;;4951601;28;129197;-63
2022/07/07 05:14:57;;;;;;;;;;;;;;;;;;4942860;28;136614;-63
2022/07/07 05:17:23;;;;;;;;;;;;;;;;;;4949273;28;128074;-63
2022/07/07 05:19:49;;;;;;;;;;;;;;;;;;4954101;28;120181;-63
2022/07/07 05:22:16;;;;;;;;;;;;;;;;;;4953721;28;107582;-63
2022/07/07 05:24:42;;;;;;;;;;;;;;;;;;4951640;28;125584;-63
2022/07/07 05:27:09;;;;;;;;;;;;;;;;;;4952242;28;119856;-63
2022/07/07 05:29:35;;;;;;;;;;;;;;;;;;4951987;28;137448;-63
2022/07/07 05:32:01;;;;;;;;;;;;;;;;;;4958732;28;123921;-63
2022/07/07 05:34:28;;;;;;;;;;;;;;;;;;4960845;28;122014;-63
2022/07/07 05:36:54;;;;;;;;;;;;;;;;;;4951543;28;129832;-63
2022/07/07 05:39:21;;;;;;;;;;;;;;;;;;4953158;28;116051;-65
2022/07/07 05:41:47;;;;;;;;;;;;;;;;;;4946378;28;135861;-63
2022/07/07 05:44:13;;;;;;;;;;;;;;;;;;4943434;28;128070;-63
2022/07/07 05:46:40;;;;;;;;;;;;;;;;;;4947286;28;135226;-63
2022/07/07 05:49:07;;;;;;;;;;;;;;;;;;4948333;28;139483;-65
2022/07/07 05:51:33;;;;;;;;;;;;;;;;;;4947430;28;130111;-64
2022/07/07 05:53:59;;;;;;;;;;;;;;;;;;4957522;28;136275;-63
2022/07/07 05:56:25;;;;;;;;;;;;;;;;;;4952824;28;107774;-63
2022/07/07 05:58:52;;;;;;;;;;;;;;;;;;4946490;28;135398;-64
2022/07/07 06:01:18;;;;;;;;;;;;;;;;;;4946725;28;137771;-63
2022/07/07 06:03:44;;;;;;;;;;;;;;;;;;4947870;28;128430;-63
2022/07/07 06:06:11;;;;;;;;;;;;;;;;;;4947712;28;135616;-63
2022/07/07 06:08:38;;;;;;;;;;;;;;;;;;4946097;28;138065;-63
2022/07/07 06:11:04;;;;;;;;;;;;;;;;;;4946508;28;127987;-64
2022/07/07 06:13:30;;;;;;;;;;;;;;;;;;4948352;28;129415;-63
2022/07/07 06:15:56;;;;;;;;;;;;;;;;;;4942591;28;136977;-63
2022/07/07 06:18:23;;;;;;;;;;;;;;;;;;4947860;28;107634;-64
2022/07/07 06:20:49;;;;;;;;;;;;;;;;;;4943767;28;136778;-63
2022/07/07 06:23:16;;;;;;;;;;;;;;;;;;4947932;28;127313;-63
2022/07/07 06:25:43;;;;;;;;;;;;;;;;;;4946048;28;137542;-63
2022/07/07 06:28:09;;;;;;;;;;;;;;;;;;4935838;28;135736;-63
2022/07/07 06:30:35;;;;;;;;;;;;;;;;;;4942488;28;128929;-63
2022/07/07 06:33:02;;;;;;;;;;;;;;;;;;4949447;28;118976;-63
2022/07/07 06:35:28;;;;;;;;;;;;;;;;;;4941834;28;119106;-63
2022/07/07 06:37:54;;;;;;;;;;;;;;;;;;4947592;28;129160;-63
2022/07/07 06:40:21;;;;;;;;;;;;;;;;;;4950221;28;135224;-65
2022/07/07 06:42:47;;;;;;;;;;;;;;;;;;4947899;28;107003;-63
2022/07/07 06:45:20;;;;;;;;;;;;;;;;;;4950636;28;108141;-63
2022/07/07 06:47:47;;;;;;;;;;;;;;;;;;4947816;28;137258;-63
2022/07/07 06:50:18;;;;;;;;;;;;;;;;;;4947898;28;130168;-63
2022/07/07 06:52:44;;;;;;;;;;;;;;;;;;4949328;28;136224;-63
2022/07/07 06:55:11;;;;;;;;;;;;;;;;;;4946503;28;136295;-62
2022/07/07 06:57:37;;;;;;;;;;;;;;;;;;4948022;28;129157;-64
2022/07/07 07:00:04;;;;;;;;;;;;;;;;;;4942585;28;125853;-63
2022/07/07 07:02:30;;;;;;;;;;;;;;;;;;4946877;28;136276;-63
2022/07/07 07:04:56;;;;;;;;;;;;;;;;;;4945941;28;135251;-65
2022/07/07 07:07:23;;;;;;;;;;;;;;;;;;4944795;28;134355;-64
2022/07/07 07:09:50;;;;;;;;;;;;;;;;;;4943703;28;126959;-63
2022/07/07 07:12:16;;;;;;;;;;;;;;;;;;4935892;28;107786;-64
2022/07/07 07:14:42;;;;;;;;;;;;;;;;;;4945749;28;137151;-63
2022/07/07 07:17:09;;;;;;;;;;;;;;;;;;4941318;28;128484;-64
2022/07/07 07:19:35;;;;;;;;;;;;;;;;;;4945145;28;134407;-65
2022/07/07 07:22:01;;;;;;;;;;;;;;;;;;4946339;28;127883;-64
2022/07/07 07:24:27;;;;;;;;;;;;;;;;;;4949068;28;121845;-64
2022/07/07 07:26:54;;;;;;;;;;;;;;;;;;4946614;28;135730;-64
2022/07/07 07:29:20;;;;;;;;;;;;;;;;;;4933095;28;129258;-63
2022/07/07 07:31:47;;;;;;;;;;;;;;;;;;4947215;28;121554;-63
2022/07/07 07:34:13;;;;;;;;;;;;;;;;;;4945022;28;137175;-64
2022/07/07 07:36:39;;;;;;;;;;;;;;;;;;4938281;28;129590;-63
2022/07/07 07:39:06;;;;;;;;;;;;;;;;;;4935199;28;137486;-65
2022/07/07 07:41:32;;;;;;;;;;;;;;;;;;4944717;28;138874;-63
2022/07/07 07:43:59;;;;;;;;;;;;;;;;;;4950367;28;106430;-63
2022/07/07 07:46:25;;;;;;;;;;;;;;;;;;4937197;28;134378;-63
2022/07/07 07:48:51;;;;;;;;;;;;;;;;;;4945735;28;121105;-64
2022/07/07 07:51:18;;;;;;;;;;;;;;;;;;4946901;28;136557;-63
2022/07/07 07:53:44;;;;;;;;;;;;;;;;;;4945754;28;113484;-63
2022/07/07 07:56:11;;;;;;;;;;;;;;;;;;4946466;28;118324;-63
2022/07/07 07:58:37;;;;;;;;;;;;;;;;;;4944566;28;136498;-63
2022/07/07 08:01:04;;;;;;;;;;;;;;;;;;4944924;28;137310;-63
2022/07/07 08:03:30;;;;;;;;;;;;;;;;;;4944891;28;128383;-63
2022/07/07 08:05:57;;;;;;;;;;;;;;;;;;4948770;28;136457;-64
2022/07/07 08:08:23;;;;;;;;;;;;;;;;;;4944863;28;130042;-63
2022/07/07 08:10:50;;;;;;;;;;;;;;;;;;4946002;28;136975;-63
2022/07/07 08:13:16;;;;;;;;;;;;;;;;;;4945684;28;138189;-63
2022/07/07 08:15:42;;;;;;;;;;;;;;;;;;4943543;28;121530;-63
2022/07/07 08:18:09;;;;;;;;;;;;;;;;;;4944541;28;136092;-63
2022/07/07 08:20:35;;;;;;;;;;;;;;;;;;4945123;28;137113;-63
2022/07/07 08:23:02;;;;;;;;;;;;;;;;;;4941434;28;129355;-63
2022/07/07 08:25:28;;;;;;;;;;;;;;;;;;4944320;28;107963;-64
2022/07/07 08:27:54;;;;;;;;;;;;;;;;;;4947821;28;137800;-63
2022/07/07 08:30:20;;;;;;;;;;;;;;;;;;4942921;28;136691;-63
2022/07/07 08:32:47;;;;;;;;;;;;;;;;;;4945627;28;136928;-63
2022/07/07 08:35:13;;;;;;;;;;;;;;;;;;4945026;28;106444;-64
2022/07/07 08:37:39;;;;;;;;;;;;;;;;;;4943444;28;122407;-62
2022/07/07 08:40:06;;;;;;;;;;;;;;;;;;4938937;28;137223;-65
2022/07/07 08:42:37;;;;;;;;;;;;;;;;;;4944732;28;128441;-63
2022/07/07 08:45:03;;;;;;;;;;;;;;;;;;4945286;28;135332;-63
2022/07/07 08:47:29;;;;;;;;;;;;;;;;;;4944878;28;136673;-63
2022/07/07 08:49:56;;;;;;;;;;;;;;;;;;4948981;28;129933;-64
2022/07/07 08:52:22;;;;;;;;;;;;;;;;;;4942894;28;108529;-63
2022/07/07 08:54:48;;;;;;;;;;;;;;;;;;4947679;28;129477;-63
2022/07/07 08:57:15;;;;;;;;;;;;;;;;;;4943044;28;121491;-63
2022/07/07 08:59:41;;;;;;;;;;;;;;;;;;4944136;28;132074;-62
2022/07/07 09:02:08;;;;;;;;;;;;;;;;;;4934844;28;120115;-64
2022/07/07 09:04:35;;;;;;;;;;;;;;;;;;4932990;28;127274;-63
2022/07/07 09:07:02;;;;;;;;;;;;;;;;;;4933762;28;137028;-63
2022/07/07 09:09:28;;;;;;;;;;;;;;;;;;4934373;28;127721;-63
2022/07/07 09:11:54;;;;;;;;;;;;;;;;;;4943143;28;128722;-63
2022/07/07 09:14:21;;;;;;;;;;;;;;;;;;4937598;28;129195;-63
2022/07/07 09:16:47;;;;;;;;;;;;;;;;;;4949409;28;117433;-64
2022/07/07 09:19:13;;;;;;;;;;;;;;;;;;4947650;28;136322;-63
2022/07/07 09:21:40;;;;;;;;;;;;;;;;;;4946603;28;129481;-63
2022/07/07 09:24:06;;;;;;;;;;;;;;;;;;4948529;28;106727;-65
2022/07/07 09:26:33;;;;;;;;;;;;;;;;;;4937229;28;128718;-63
2022/07/07 09:28:59;;;;;;;;;;;;;;;;;;4941350;28;129301;-64
2022/07/07 09:31:25;;;;;;;;;;;;;;;;;;4943021;28;135227;-65
2022/07/07 09:33:51;;;;;;;;;;;;;;;;;;4943460;28;107691;-66
2022/07/07 09:39:03;;;;;;;;;;;;;;;;;;4948244;28;136956;-65
2022/07/07 09:41:29;;;;;;;;;;;;;;;;;;4937596;28;123002;-65
2022/07/07 09:43:56;;;;;;;;;;;;;;;;;;4943718;28;123967;-65
2022/07/07 09:46:22;;;;;;;;;;;;;;;;;;4945690;28;137538;-65
2022/07/07 09:48:48;;;;;;;;;;;;;;;;;;4942158;28;131225;-64
2022/07/07 09:51:15;;;;;;;;;;;;;;;;;;4932414;28;135964;-63
2022/07/07 09:53:41;;;;;;;;;;;;;;;;;;4947469;28;107208;-64
2022/07/07 09:56:08;;;;;;;;;;;;;;;;;;4940229;28;126899;-65
2022/07/07 09:58:34;;;;;;;;;;;;;;;;;;4938814;28;106752;-62
2022/07/07 10:01:00;;;;;;;;;;;;;;;;;;4937050;28;127680;-64
2022/07/07 10:03:28;;;;;;;;;;;;;;;;;;4930102;28;128582;-64
2022/07/07 10:05:55;;;;;;;;;;;;;;;;;;4941765;28;109492;-63
2022/07/07 10:08:21;;;;;;;;;;;;;;;;;;4941621;28;131498;-63
2022/07/07 10:10:48;;;;;;;;;;;;;;;;;;4943234;28;127731;-63
2022/07/07 10:13:14;;;;;;;;;;;;;;;;;;4947698;28;135694;-63
2022/07/07 10:15:41;;;;;;;;;;;;;;;;;;4951217;28;129066;-62
2022/07/07 10:18:08;;;;;;;;;;;;;;;;;;4940624;28;136520;-64
2022/07/07 10:20:34;;;;;;;;;;;;;;;;;;4944866;28;117993;-62
2022/07/07 10:23:01;;;;;;;;;;;;;;;;;;4945963;28;135208;-63
2022/07/07 10:25:27;;;;;;;;;;;;;;;;;;4946978;28;137230;-62
2022/07/07 10:27:53;;;;;;;;;;;;;;;;;;4942006;28;126813;-65
2022/07/07 10:30:19;;;;;;;;;;;;;;;;;;4938391;28;136039;-63
2022/07/07 10:32:46;;;;;;;;;;;;;;;;;;4938848;28;118693;-62
2022/07/07 10:35:12;;;;;;;;;;;;;;;;;;4936552;28;130114;-64
2022/07/07 10:37:38;;;;;;;;;;;;;;;;;;4947388;28;137267;-64
2022/07/07 10:40:05;;;;;;;;;;;;;;;;;;4942855;28;130008;-63
2022/07/07 10:42:31;;;;;;;;;;;;;;;;;;4939037;28;124610;-63
2022/07/07 10:44:57;;;;;;;;;;;;;;;;;;4928183;28;137103;-64
2022/07/07 10:47:24;;;;;;;;;;;;;;;;;;4947225;28;129137;-64
2022/07/07 10:49:54;;;;;;;;;;;;;;;;;;4940117;28;138113;-65
2022/07/07 10:52:21;;;;;;;;;;;;;;;;;;4935325;28;132340;-65
2022/07/07 10:54:47;;;;;;;;;;;;;;;;;;4944974;28;129526;-63
2022/07/07 10:57:14;;;;;;;;;;;;;;;;;;4938132;28;137325;-63
2022/07/07 10:59:40;;;;;;;;;;;;;;;;;;4943884;28;135624;-63
2022/07/07 11:02:06;;;;;;;;;;;;;;;;;;4944849;28;106904;-63
2022/07/07 11:04:33;;;;;;;;;;;;;;;;;;4933258;28;137357;-63
2022/07/07 11:06:59;;;;;;;;;;;;;;;;;;4946306;28;128039;-63
2022/07/07 11:09:25;;;;;;;;;;;;;;;;;;4944331;28;129740;-62
2022/07/07 11:11:51;;;;;;;;;;;;;;;;;;4938915;28;128309;-63
2022/07/07 11:14:18;;;;;;;;;;;;;;;;;;4946133;28;128022;-63
2022/07/07 11:16:47;;;;;;;;;;;;;;;;;;4943287;28;114847;-63
2022/07/07 11:19:15;;;;;;;;;;;;;;;;;;4938057;28;135925;-63
2022/07/07 11:21:41;;;;;;;;;;;;;;;;;;4951697;28;105938;-64
2022/07/07 11:24:08;;;;;;;;;;;;;;;;;;4948221;28;137307;-64
2022/07/07 11:26:35;;;;;;;;;;;;;;;;;;4942504;28;128097;-63
2022/07/07 11:29:01;;;;;;;;;;;;;;;;;;4946046;28;122719;-63
2022/07/07 11:31:28;;;;;;;;;;;;;;;;;;4939626;28;135886;-62
2022/07/07 11:33:54;;;;;;;;;;;;;;;;;;4949179;28;128115;-62
2022/07/07 11:36:21;;;;;;;;;;;;;;;;;;4944371;28;125540;-65
2022/07/07 11:38:47;;;;;;;;;;;;;;;;;;4942597;28;138020;-62
2022/07/07 11:41:14;;;;;;;;;;;;;;;;;;4949865;28;110346;-64
2022/07/07 11:43:40;;;;;;;;;;;;;;;;;;4946204;28;137080;-65
2022/07/07 11:46:06;;;;;;;;;;;;;;;;;;4927516;28;133804;-65
2022/07/07 11:48:33;;;;;;;;;;;;;;;;;;4940058;28;108344;-63
2022/07/07 11:51:00;;;;;;;;;;;;;;;;;;4943874;28;134206;-63
2022/07/07 11:53:27;;;;;;;;;;;;;;;;;;4931850;28;126560;-63
2022/07/07 11:55:53;;;;;;;;;;;;;;;;;;4946941;28;126856;-64
2022/07/07 11:58:20;;;;;;;;;;;;;;;;;;4944937;28;126835;-64
2022/07/07 12:00:46;;;;;;;;;;;;;;;;;;4941217;28;106269;-63
2022/07/07 12:03:13;;;;;;;;;;;;;;;;;;4945892;28;136110;-63
2022/07/07 12:05:43;;;;;;;;;;;;;;;;;;4945561;28;127850;-64
2022/07/07 12:08:09;;;;;;;;;;;;;;;;;;4944370;28;135404;-64
2022/07/07 12:10:35;;;;;;;;;;;;;;;;;;4941919;28;136497;-62
2022/07/07 12:13:02;;;;;;;;;;;;;;;;;;4938600;28;119933;-63
2022/07/07 12:15:28;;;;;;;;;;;;;;;;;;4940144;28;108425;-63
2022/07/07 12:17:55;;;;;;;;;;;;;;;;;;4942888;28;128478;-63
2022/07/07 12:20:21;;;;;;;;;;;;;;;;;;4946284;28;128859;-65
2022/07/07 12:22:47;;;;;;;;;;;;;;;;;;4942238;28;136003;-62
2022/07/07 12:25:14;;;;;;;;;;;;;;;;;;4947477;28;134674;-62
2022/07/07 12:28:00;;;;;;;;;;;;;;;;;;4945316;28;106952;-62
2022/07/07 12:30:26;;;;;;;;;;;;;;;;;;4943663;28;115391;-62
2022/07/07 12:32:53;;;;;;;;;;;;;;;;;;4942164;28;129646;-63
2022/07/07 12:35:19;;;;;;;;;;;;;;;;;;4932031;28;138035;-62
2022/07/07 12:37:45;;;;;;;;;;;;;;;;;;4945947;28;130986;-63
2022/07/07 12:40:11;;;;;;;;;;;;;;;;;;4944059;28;129440;-65
2022/07/07 12:42:38;;;;;;;;;;;;;;;;;;4931670;28;107103;-62
2022/07/07 12:45:04;;;;;;;;;;;;;;;;;;4941373;28;137273;-62
2022/07/07 12:47:33;;;;;;;;;;;;;;;;;;4942727;28;119033;-62
2022/07/07 12:49:59;;;;;;;;;;;;;;;;;;4942357;28;132296;-63
2022/07/07 12:52:26;;;;;;;;;;;;;;;;;;4948847;28;128957;-63
2022/07/07 12:54:55;;;;;;;;;;;;;;;;;;4944637;28;135034;-63
2022/07/07 12:57:21;;;;;;;;;;;;;;;;;;4948437;28;136743;-63
2022/07/07 12:59:48;;;;;;;;;;;;;;;;;;4949123;28;114061;-63
2022/07/07 13:02:14;;;;;;;;;;;;;;;;;;4943929;28;136663;-63
2022/07/07 13:04:42;;;;;;;;;;;;;;;;;;4947281;28;131208;-62
2022/07/07 13:07:09;;;;;;;;;;;;;;;;;;4946372;28;111675;-63
2022/07/07 13:09:35;;;;;;;;;;;;;;;;;;4951858;28;136038;-63
2022/07/07 13:12:02;;;;;;;;;;;;;;;;;;4942470;28;120286;-62
2022/07/07 13:14:29;;;;;;;;;;;;;;;;;;4947501;28;106939;-64
2022/07/07 13:16:55;;;;;;;;;;;;;;;;;;4941675;28;133718;-62
2022/07/07 13:19:21;;;;;;;;;;;;;;;;;;4941177;28;129561;-62
2022/07/07 13:21:48;;;;;;;;;;;;;;;;;;4946453;28;120583;-63
2022/07/07 13:24:14;;;;;;;;;;;;;;;;;;4947831;28;136385;-62
2022/07/07 13:26:41;;;;;;;;;;;;;;;;;;4942613;28;107905;-62
2022/07/07 13:29:08;;;;;;;;;;;;;;;;;;4941054;28;132868;-64
2022/07/07 13:31:38;;;;;;;;;;;;;;;;;;4949612;28;137179;-62
2022/07/07 13:34:04;;;;;;;;;;;;;;;;;;4945023;28;133356;-61
2022/07/07 13:36:31;;;;;;;;;;;;;;;;;;4942426;28;115535;-63
2022/07/07 13:38:57;;;;;;;;;;;;;;;;;;4942368;28;126685;-62
2022/07/07 13:41:23;;;;;;;;;;;;;;;;;;4947448;28;110445;-63
2022/07/07 13:44:09;;;;;;;;;;;;;;;;;;4947831;28;107644;-63
2022/07/07 13:46:36;;;;;;;;;;;;;;;;;;4947933;28;128491;-63
2022/07/07 13:49:02;;;;;;;;;;;;;;;;;;4942379;28;137295;-63
2022/07/07 13:51:28;;;;;;;;;;;;;;;;;;4946296;28;138788;-63
2022/07/07 13:53:55;;;;;;;;;;;;;;;;;;4939756;28;133819;-63
2022/07/07 13:56:41;;;;;;;;;;;;;;;;;;4946818;28;106794;-63
2022/07/07 13:59:07;;;;;;;;;;;;;;;;;;4938906;28;128127;-63
2022/07/07 14:01:34;;;;;;;;;;;;;;;;;;4941005;28;124867;-63
2022/07/07 14:04:01;;;;;;;;;;;;;;;;;;4944736;28;129122;-62
2022/07/07 14:06:27;;;;;;;;;;;;;;;;;;4942200;28;124767;-62
2022/07/07 14:08:53;;;;;;;;;;;;;;;;;;4940907;28;137115;-63
2022/07/07 14:11:19;;;;;;;;;;;;;;;;;;4940800;28;119749;-65
2022/07/07 14:13:46;;;;;;;;;;;;;;;;;;4950008;28;131787;-63
2022/07/07 14:16:13;;;;;;;;;;;;;;;;;;4942240;28;137287;-63
2022/07/07 14:18:39;;;;;;;;;;;;;;;;;;4951476;28;129362;-63
2022/07/07 14:21:05;;;;;;;;;;;;;;;;;;4942159;28;135512;-63
2022/07/07 14:23:31;;;;;;;;;;;;;;;;;;4941915;28;107355;-63
2022/07/07 14:25:58;;;;;;;;;;;;;;;;;;4940304;28;127879;-62
2022/07/07 14:28:24;;;;;;;;;;;;;;;;;;4938103;28;136762;-63
2022/07/07 14:30:51;;;;;;;;;;;;;;;;;;4938780;28;137858;-66
2022/07/07 14:33:17;;;;;;;;;;;;;;;;;;4944124;28;127818;-62
2022/07/07 14:35:43;;;;;;;;;;;;;;;;;;4949375;28;136688;-62
2022/07/07 14:38:10;;;;;;;;;;;;;;;;;;4937802;28;127702;-63
2022/07/07 14:40:36;;;;;;;;;;;;;;;;;;4945475;28;123580;-62
2022/07/07 14:43:02;;;;;;;;;;;;;;;;;;4942244;28;135373;-62
2022/07/07 14:45:28;;;;;;;;;;;;;;;;;;4943348;28;129557;-63
2022/07/07 14:47:55;;;;;;;;;;;;;;;;;;4943147;28;135404;-63
2022/07/07 14:50:21;;;;;;;;;;;;;;;;;;4939922;28;131142;-66
2022/07/07 14:52:47;;;;;;;;;;;;;;;;;;4943827;28;129432;-63
2022/07/07 14:55:14;;;;;;;;;;;;;;;;;;4945541;28;136928;-62
2022/07/07 14:57:40;;;;;;;;;;;;;;;;;;4940313;28;136039;-63
2022/07/07 15:00:06;;;;;;;;;;;;;;;;;;4944280;28;137216;-64
2022/07/07 15:02:32;;;;;;;;;;;;;;;;;;4943880;28;137392;-63
2022/07/07 15:04:59;;;;;;;;;;;;;;;;;;4940365;28;129677;-63
2022/07/07 15:07:25;;;;;;;;;;;;;;;;;;4941319;28;136744;-63
2022/07/07 15:09:52;;;;;;;;;;;;;;;;;;4943928;28;136448;-63
2022/07/07 15:12:18;;;;;;;;;;;;;;;;;;4941674;28;112032;-63
2022/07/07 15:14:44;;;;;;;;;;;;;;;;;;4942019;28;136108;-63
2022/07/07 15:17:11;;;;;;;;;;;;;;;;;;4938048;28;138107;-63
2022/07/07 15:19:37;;;;;;;;;;;;;;;;;;4942934;28;129225;-62
2022/07/07 15:22:03;;;;;;;;;;;;;;;;;;4942849;28;107881;-61
2022/07/07 15:24:30;;;;;;;;;;;;;;;;;;4937634;28;127949;-62
2022/07/07 15:27:02;;;;;;;;;;;;;;;;;;4944134;28;135347;-62
2022/07/07 15:29:28;;;;;;;;;;;;;;;;;;4942936;28;137388;-62
2022/07/07 15:31:54;;;;;;;;;;;;;;;;;;4941427;28;128592;-63
2022/07/07 15:34:21;;;;;;;;;;;;;;;;;;4945679;28;109176;-63
2022/07/07 15:36:47;;;;;;;;;;;;;;;;;;4944073;28;138838;-62
2022/07/07 15:39:13;;;;;;;;;;;;;;;;;;4943273;28;128406;-62
2022/07/07 15:41:40;;;;;;;;;;;;;;;;;;4947119;28;136947;-62
2022/07/07 15:44:06;;;;;;;;;;;;;;;;;;4943892;28;128181;-65
2022/07/07 15:46:32;;;;;;;;;;;;;;;;;;4944770;28;136136;-62
2022/07/07 15:48:59;;;;;;;;;;;;;;;;;;4942843;28;123068;-61
2022/07/07 15:51:25;;;;;;;;;;;;;;;;;;4939097;28;130130;-62
2022/07/07 15:53:51;;;;;;;;;;;;;;;;;;4943402;28;141579;-63
2022/07/07 15:56:19;;;;;;;;;;;;;;;;;;4944222;28;137815;-65
2022/07/07 15:58:46;;;;;;;;;;;;;;;;;;4934432;28;131380;-62
2022/07/07 16:01:12;;;;;;;;;;;;;;;;;;4943863;28;127375;-62
2022/07/07 16:06:23;;;;;;;;;;;;;;;;;;4954866;28;135489;-62
2022/07/07 16:08:50;;;;;;;;;;;;;;;;;;4943727;28;135856;-62
2022/07/07 16:11:16;;;;;;;;;;;;;;;;;;4935571;28;129028;-62
2022/07/07 16:13:42;;;;;;;;;;;;;;;;;;4946898;28;136034;-62
2022/07/07 16:16:09;;;;;;;;;;;;;;;;;;4947575;28;106491;-62
2022/07/07 16:18:35;;;;;;;;;;;;;;;;;;4944201;28;106905;-62
2022/07/07 16:21:01;;;;;;;;;;;;;;;;;;4943496;28;135313;-62
2022/07/07 16:23:28;;;;;;;;;;;;;;;;;;4942910;28;130773;-62
2022/07/07 16:25:55;;;;;;;;;;;;;;;;;;4939877;28;137013;-62
2022/07/07 16:28:21;;;;;;;;;;;;;;;;;;4942799;28;137773;-64